createdAt,value
2019-01-09T00:00:05.393Z,189.80
2019-01-09T00:01:05.349Z,191.00
2019-01-09T00:02:05.391Z,194.20
2019-01-09T00:03:05.676Z,191.20
2019-01-09T00:04:05.679Z,191.10
2019-01-09T00:05:05.648Z,184.00
2019-01-09T00:06:05.663Z,190.00
2019-01-09T00:07:05.333Z,192.90
2019-01-09T00:08:05.297Z,184.40
2019-01-09T00:09:05.620Z,196.10
2019-01-09T00:10:05.609Z,183.30
2019-01-09T00:11:05.645Z,193.10
2019-01-09T00:12:05.259Z,191.10
2019-01-09T00:13:05.636Z,194.30
2019-01-09T00:14:05.243Z,188.30
2019-01-09T00:15:05.627Z,186.30
2019-01-09T00:16:05.615Z,185.50
2019-01-09T00:17:05.225Z,183.00
2019-01-09T00:18:05.550Z,182.00
2019-01-09T00:19:05.229Z,187.70
2019-01-09T00:20:05.569Z,184.50
2019-01-09T00:21:05.549Z,183.10
2019-01-09T00:22:05.560Z,178.70
2019-01-09T00:23:05.200Z,182.60
2019-01-09T00:24:05.548Z,180.90
2019-01-09T00:25:05.146Z,189.00
2019-01-09T00:26:05.184Z,177.70
2019-01-09T00:27:05.481Z,176.50
2019-01-09T00:28:05.120Z,187.00
2019-01-09T00:29:05.142Z,182.40
2019-01-09T00:30:05.464Z,180.40
2019-01-09T00:31:05.107Z,181.00
2019-01-09T00:32:05.094Z,192.70
2019-01-09T00:33:05.438Z,184.90
2019-01-09T00:34:05.409Z,186.40
2019-01-09T00:35:05.464Z,191.90
2019-01-09T00:36:05.094Z,173.00
2019-01-09T00:37:05.427Z,186.50
2019-01-09T00:38:05.378Z,182.30
2019-01-09T00:39:05.379Z,186.90
2019-01-09T00:40:05.066Z,191.40
2019-01-09T00:41:05.018Z,180.00
2019-01-09T00:42:05.010Z,180.70
2019-01-09T00:43:05.386Z,176.20
2019-01-09T00:44:05.365Z,182.30
2019-01-09T00:45:05.312Z,182.90
2019-01-09T00:46:05.345Z,175.10
2019-01-09T00:47:05.009Z,188.70
2019-01-09T00:48:05.320Z,175.40
2019-01-09T00:49:05.307Z,182.10
2019-01-09T00:50:04.988Z,185.80
2019-01-09T00:51:04.938Z,178.50
2019-01-09T00:52:05.284Z,185.00
2019-01-09T00:53:04.919Z,172.60
2019-01-09T00:54:05.306Z,180.60
2019-01-09T00:55:05.285Z,179.40
2019-01-09T00:56:05.283Z,175.60
2019-01-09T00:57:04.881Z,184.60
2019-01-09T00:58:05.254Z,173.80
2019-01-09T00:59:04.906Z,187.20
2019-01-09T01:00:05.216Z,187.70
2019-01-09T01:01:04.903Z,178.50
2019-01-09T01:02:04.838Z,183.40
2019-01-09T01:03:05.162Z,184.10
2019-01-09T01:04:04.864Z,178.20
2019-01-09T01:05:04.851Z,180.60
2019-01-09T01:06:05.169Z,191.60
2019-01-09T01:07:05.295Z,189.30
2019-01-09T01:08:05.200Z,183.60
2019-01-09T01:09:04.817Z,185.10
2019-01-09T01:10:05.116Z,179.90
2019-01-09T01:11:05.124Z,183.40
2019-01-09T01:12:04.757Z,180.60
2019-01-09T01:13:05.086Z,182.70
2019-01-09T01:14:05.142Z,185.10
2019-01-09T01:15:05.092Z,183.50
2019-01-09T01:16:05.087Z,187.30
2019-01-09T01:17:04.718Z,187.20
2019-01-09T01:18:04.715Z,186.50
2019-01-09T01:19:05.054Z,181.80
2019-01-09T01:20:04.704Z,191.80
2019-01-09T01:21:04.730Z,186.90
2019-01-09T01:22:04.676Z,175.90
2019-01-09T01:23:04.711Z,186.40
2019-01-09T01:24:04.695Z,189.00
2019-01-09T01:25:04.655Z,182.60
2019-01-09T01:26:05.020Z,181.40
2019-01-09T01:27:05.030Z,189.20
2019-01-09T01:28:04.666Z,186.80
2019-01-09T01:29:05.002Z,183.80
2019-01-09T01:30:04.662Z,189.70
2019-01-09T01:31:04.638Z,196.50
2019-01-09T01:32:04.973Z,184.00
2019-01-09T01:33:04.949Z,175.80
2019-01-09T01:34:04.585Z,186.90
2019-01-09T01:35:04.940Z,176.50
2019-01-09T01:36:04.560Z,182.50
2019-01-09T01:37:04.886Z,185.10
2019-01-09T01:38:04.907Z,178.90
2019-01-09T01:39:04.545Z,180.00
2019-01-09T01:40:04.534Z,175.70
2019-01-09T01:41:04.517Z,183.90
2019-01-09T01:42:04.885Z,190.30
2019-01-09T01:43:04.516Z,179.00
2019-01-09T01:44:04.870Z,183.10
2019-01-09T01:45:04.848Z,189.10
2019-01-09T01:46:04.490Z,186.50
2019-01-09T01:47:04.487Z,185.00
2019-01-09T01:48:04.497Z,186.70
2019-01-09T01:49:04.499Z,175.40
2019-01-09T01:50:04.445Z,187.70
2019-01-09T01:51:04.799Z,185.30
2019-01-09T01:52:04.835Z,181.80
2019-01-09T01:53:04.464Z,187.10
2019-01-09T01:54:04.763Z,177.10
2019-01-09T01:55:04.458Z,182.80
2019-01-09T01:56:04.755Z,184.70
2019-01-09T01:57:04.756Z,177.70
2019-01-09T01:58:04.731Z,176.00
2019-01-09T01:59:04.785Z,173.10
2019-01-09T02:00:04.726Z,187.10
2019-01-09T02:01:04.732Z,183.50
2019-01-09T02:02:04.733Z,188.60
2019-01-09T02:03:04.383Z,181.10
2019-01-09T02:04:04.345Z,184.50
2019-01-09T02:05:04.321Z,183.30
2019-01-09T02:06:04.374Z,185.60
2019-01-09T02:07:04.660Z,188.10
2019-01-09T02:08:04.327Z,187.30
2019-01-09T02:09:04.675Z,178.80
2019-01-09T02:10:04.676Z,177.10
2019-01-09T02:11:04.312Z,180.20
2019-01-09T02:12:04.630Z,183.60
2019-01-09T02:13:04.267Z,183.00
2019-01-09T02:14:04.257Z,182.20
2019-01-09T02:15:04.648Z,174.30
2019-01-09T02:16:04.575Z,187.60
2019-01-09T02:17:04.231Z,192.00
2019-01-09T02:18:04.219Z,189.10
2019-01-09T02:19:04.202Z,182.00
2019-01-09T02:20:04.551Z,188.80
2019-01-09T02:21:04.565Z,182.70
2019-01-09T02:22:04.233Z,182.20
2019-01-09T02:23:04.526Z,188.40
2019-01-09T02:24:04.561Z,191.70
2019-01-09T02:25:04.491Z,189.20
2019-01-09T02:26:04.556Z,190.30
2019-01-09T02:27:04.493Z,189.90
2019-01-09T02:28:04.180Z,190.90
2019-01-09T02:29:04.495Z,188.20
2019-01-09T02:30:04.497Z,191.50
2019-01-09T02:31:04.456Z,190.40
2019-01-09T02:32:04.488Z,192.20
2019-01-09T02:33:04.476Z,199.20
2019-01-09T02:34:04.496Z,194.00
2019-01-09T02:35:04.466Z,196.20
2019-01-09T02:36:13.084Z,193.70
2019-01-09T02:37:04.121Z,200.30
2019-01-09T02:38:04.417Z,195.10
2019-01-09T02:39:04.464Z,199.90
2019-01-09T02:40:04.045Z,197.20
2019-01-09T02:41:04.380Z,199.10
2019-01-09T02:42:04.360Z,195.70
2019-01-09T02:43:04.346Z,195.50
2019-01-09T02:44:04.335Z,195.60
2019-01-09T02:45:04.390Z,199.00
2019-01-09T02:46:03.989Z,196.40
2019-01-09T02:47:04.022Z,195.10
2019-01-09T02:48:04.363Z,200.70
2019-01-09T02:49:04.295Z,190.00
2019-01-09T02:50:04.299Z,191.70
2019-01-09T02:51:03.975Z,208.00
2019-01-09T02:52:03.943Z,197.70
2019-01-09T02:53:04.264Z,190.40
2019-01-09T02:54:04.312Z,190.20
2019-01-09T02:55:03.960Z,204.00
2019-01-09T02:56:04.294Z,192.40
2019-01-09T02:57:04.260Z,191.50
2019-01-09T02:58:04.297Z,196.10
2019-01-09T02:59:03.889Z,190.00
2019-01-09T03:00:03.905Z,191.20
2019-01-09T03:01:03.897Z,190.30
2019-01-09T03:02:03.898Z,193.10
2019-01-09T03:03:03.888Z,195.80
2019-01-09T03:04:03.889Z,195.90
2019-01-09T03:05:04.197Z,194.90
2019-01-09T03:06:04.223Z,200.60
2019-01-09T03:07:03.823Z,197.70
2019-01-09T03:08:04.199Z,190.70
2019-01-09T03:09:03.795Z,190.90
2019-01-09T03:10:04.141Z,197.10
2019-01-09T03:11:04.166Z,187.70
2019-01-09T03:12:03.788Z,190.90
2019-01-09T03:13:03.769Z,194.70
2019-01-09T03:14:03.810Z,201.00
2019-01-09T03:15:04.147Z,189.20
2019-01-09T03:16:04.093Z,188.10
2019-01-09T03:17:03.776Z,180.10
2019-01-09T03:18:04.079Z,195.90
2019-01-09T03:19:04.115Z,185.90
2019-01-09T03:20:04.066Z,182.80
2019-01-09T03:21:04.037Z,183.10
2019-01-09T03:22:04.044Z,184.90
2019-01-09T03:23:03.735Z,183.00
2019-01-09T03:24:03.720Z,182.00
2019-01-09T03:25:03.672Z,191.70
2019-01-09T03:26:03.701Z,184.20
2019-01-09T03:27:03.654Z,181.90
2019-01-09T03:28:03.643Z,182.30
2019-01-09T03:29:03.668Z,175.30
2019-01-09T03:30:03.672Z,180.60
2019-01-09T03:31:04.035Z,179.80
2019-01-09T03:32:03.903Z,184.70
2019-01-09T03:33:03.604Z,183.50
2019-01-09T03:34:04.002Z,182.70
2019-01-09T03:35:03.968Z,175.00
2019-01-09T03:36:03.939Z,171.90
2019-01-09T03:37:03.605Z,174.50
2019-01-09T03:38:03.568Z,174.20
2019-01-09T03:39:03.926Z,183.20
2019-01-09T03:40:03.588Z,174.30
2019-01-09T03:41:03.583Z,171.10
2019-01-09T03:42:03.538Z,162.60
2019-01-09T03:43:03.574Z,176.20
2019-01-09T03:44:03.906Z,168.40
2019-01-09T03:45:03.513Z,162.50
2019-01-09T03:46:03.526Z,165.50
2019-01-09T03:47:03.530Z,158.60
2019-01-09T03:48:03.532Z,162.70
2019-01-09T03:49:03.517Z,169.40
2019-01-09T03:50:03.801Z,154.10
2019-01-09T03:51:04.579Z,154.60
2019-01-09T03:52:03.810Z,148.80
2019-01-09T03:53:03.442Z,148.80
2019-01-09T03:54:03.856Z,143.70
2019-01-09T03:55:03.782Z,136.70
2019-01-09T03:56:03.412Z,135.40
2019-01-09T03:57:03.424Z,130.50
2019-01-09T03:58:03.785Z,132.70
2019-01-09T04:00:34.689Z,130.30
2019-01-09T04:01:34.452Z,137.10
2019-01-09T04:03:26.836Z,125.30
2019-01-09T04:04:27.149Z,119.50
2019-01-09T04:06:19.353Z,122.10
2019-01-09T04:07:19.141Z,117.10
2019-01-09T04:09:11.031Z,119.90
2019-01-09T04:10:11.388Z,116.90
2019-01-09T04:12:03.897Z,124.00
2019-01-09T04:13:03.687Z,125.90
2019-01-09T04:14:55.996Z,126.90
2019-01-09T04:15:56.019Z,123.00
2019-01-09T04:17:49.203Z,119.20
2019-01-09T04:18:48.004Z,120.60
2019-01-09T04:20:40.784Z,117.70
2019-01-09T04:21:40.694Z,116.30
2019-01-09T04:23:32.903Z,116.00
2019-01-09T04:24:32.529Z,112.10
2019-01-09T04:26:24.882Z,112.80
2019-01-09T04:27:24.864Z,121.00
2019-01-09T04:29:17.196Z,113.70
2019-01-09T04:30:17.167Z,121.10
2019-01-09T04:32:09.521Z,113.40
2019-01-09T04:38:14.581Z,85.80
2019-01-09T04:39:14.594Z,103.90
2019-01-09T04:41:07.633Z,109.80
2019-01-09T04:42:07.874Z,111.40
2019-01-09T04:44:01.423Z,106.10
2019-01-09T04:45:01.154Z,107.80
2019-01-09T04:46:54.522Z,101.70
2019-01-09T04:47:54.520Z,98.80
2019-01-09T04:49:47.167Z,101.60
2019-01-09T04:50:46.840Z,93.60
2019-01-09T04:52:38.721Z,94.50
2019-01-09T04:53:38.684Z,98.50
2019-01-09T04:55:31.267Z,112.40
2019-01-09T04:56:31.043Z,112.90
2019-01-09T04:58:23.384Z,100.20
2019-01-09T04:59:23.570Z,89.60
2019-01-09T05:01:16.978Z,99.70
2019-01-09T05:02:16.721Z,116.10
2019-01-09T05:04:10.078Z,114.20
2019-01-09T05:05:10.051Z,109.20
2019-01-09T05:07:03.626Z,108.90
2019-01-09T05:08:03.402Z,102.90
2019-01-09T05:09:56.750Z,97.30
2019-01-09T05:10:56.782Z,101.00
2019-01-09T05:12:50.385Z,105.20
2019-01-09T05:13:50.118Z,97.40
2019-01-09T05:15:43.399Z,114.10
2019-01-09T05:16:43.432Z,109.00
2019-01-09T05:18:36.982Z,108.30
2019-01-09T05:19:36.777Z,115.60
2019-01-09T05:21:30.111Z,97.80
2019-01-09T05:22:30.102Z,104.80
2019-01-09T05:24:23.649Z,113.60
2019-01-09T05:25:23.465Z,101.70
2019-01-09T05:27:16.830Z,94.70
2019-01-09T05:28:16.784Z,148.50
2019-01-09T05:30:10.316Z,123.80
2019-01-09T05:31:10.114Z,101.60
2019-01-09T05:33:03.477Z,96.30
2019-01-09T05:34:03.455Z,87.30
2019-01-09T05:35:55.988Z,96.10
2019-01-09T05:36:57.801Z,91.10
2019-01-09T05:38:49.181Z,92.60
2019-01-09T05:39:49.140Z,89.20
2019-01-09T05:41:42.709Z,92.20
2019-01-09T05:42:42.520Z,93.10
2019-01-09T05:44:35.852Z,92.60
2019-01-09T05:45:35.827Z,91.50
2019-01-09T05:47:29.403Z,89.40
2019-01-09T05:48:29.146Z,102.00
2019-01-09T05:50:22.527Z,89.70
2019-01-09T05:51:22.610Z,84.60
2019-01-09T05:53:16.067Z,85.60
2019-01-09T05:54:15.827Z,85.30
2019-01-09T05:56:09.214Z,84.30
2019-01-09T05:57:09.230Z,85.30
2019-01-09T05:59:02.732Z,78.50
2019-01-09T06:00:02.547Z,82.00
2019-01-09T06:01:55.834Z,83.20
2019-01-09T06:02:55.870Z,79.00
2019-01-09T06:04:48.416Z,78.40
2019-01-09T06:05:48.152Z,79.90
2019-01-09T06:07:40.571Z,78.30
2019-01-09T06:08:40.504Z,82.20
2019-01-09T06:10:34.093Z,76.60
2019-01-09T06:11:33.835Z,78.30
2019-01-09T06:13:27.244Z,75.80
2019-01-09T06:14:27.171Z,78.60
2019-01-09T06:16:20.801Z,80.40
2019-01-09T06:17:20.547Z,77.30
2019-01-09T06:19:13.900Z,78.10
2019-01-09T06:20:13.903Z,74.50
2019-01-09T06:22:06.439Z,78.60
2019-01-09T06:23:06.214Z,75.10
2019-01-09T06:24:59.622Z,75.20
2019-01-09T06:25:59.575Z,78.30
2019-01-09T06:27:53.154Z,77.50
2019-01-09T06:28:52.880Z,80.10
2019-01-09T06:30:46.259Z,80.20
2019-01-09T06:31:46.250Z,75.20
2019-01-09T06:33:39.929Z,74.40
2019-01-09T06:34:39.613Z,74.60
2019-01-09T06:36:32.021Z,77.90
2019-01-09T06:37:32.058Z,76.70
2019-01-09T06:39:25.627Z,78.20
2019-01-09T06:40:25.351Z,70.70
2019-01-09T06:42:18.712Z,76.20
2019-01-09T06:43:18.748Z,76.30
2019-01-09T06:45:12.335Z,72.70
2019-01-09T06:46:12.033Z,81.30
2019-01-09T06:48:06.171Z,75.80
2019-01-09T06:49:06.237Z,76.40
2019-01-09T06:50:59.825Z,74.40
2019-01-09T06:51:59.516Z,76.60
2019-01-09T06:53:52.390Z,77.00
2019-01-09T06:54:52.339Z,74.80
2019-01-09T06:56:46.483Z,69.10
2019-01-09T06:57:45.658Z,78.20
2019-01-09T06:59:39.047Z,76.60
2019-01-09T07:00:39.043Z,72.70
2019-01-09T07:02:37.230Z,79.30
2019-01-09T07:03:32.391Z,71.10
2019-01-09T07:05:25.732Z,80.60
2019-01-09T07:08:19.366Z,73.70
2019-01-09T07:09:19.061Z,72.70
2019-01-09T07:11:12.413Z,76.10
2019-01-09T07:12:12.359Z,84.20
2019-01-09T07:14:05.986Z,78.20
2019-01-09T07:15:11.331Z,84.90
2019-01-09T07:16:59.070Z,77.20
2019-01-09T07:17:59.070Z,79.90
2019-01-09T07:19:52.584Z,74.20
2019-01-09T07:20:52.360Z,74.80
2019-01-09T07:22:45.711Z,76.60
2019-01-09T07:23:45.729Z,82.60
2019-01-09T07:25:39.324Z,77.00
2019-01-09T07:26:39.058Z,84.50
2019-01-09T07:28:32.420Z,78.10
2019-01-09T07:29:32.409Z,73.00
2019-01-09T07:31:25.998Z,75.60
2019-01-09T07:32:25.722Z,71.40
2019-01-09T07:34:19.130Z,78.80
2019-01-09T07:35:19.125Z,78.80
2019-01-09T07:37:12.652Z,75.40
2019-01-09T07:38:12.443Z,82.30
2019-01-09T07:40:05.748Z,74.00
2019-01-09T07:41:05.759Z,71.50
2019-01-09T07:42:59.917Z,72.90
2019-01-09T07:43:59.101Z,72.60
2019-01-09T07:45:52.471Z,74.80
2019-01-09T07:46:52.465Z,75.20
2019-01-09T07:48:46.006Z,78.50
2019-01-09T07:49:45.782Z,72.30
2019-01-09T07:51:39.258Z,69.10
2019-01-09T07:52:39.129Z,73.40
2019-01-09T07:54:32.791Z,79.80
2019-01-09T07:55:32.457Z,73.60
2019-01-09T07:57:25.787Z,76.30
2019-01-09T07:58:25.756Z,80.80
2019-01-09T08:00:19.332Z,72.20
2019-01-09T08:01:19.131Z,69.30
2019-01-09T08:03:12.479Z,60.80
2019-01-09T08:04:12.577Z,66.90
2019-01-09T08:06:06.173Z,70.30
2019-01-09T08:07:05.802Z,76.30
2019-01-09T08:08:59.778Z,70.80
2019-01-09T08:09:59.170Z,74.10
2019-01-09T08:11:52.727Z,67.70
2019-01-09T08:12:52.495Z,63.40
2019-01-09T08:14:45.965Z,63.20
2019-01-09T08:15:45.821Z,72.40
2019-01-09T08:17:39.373Z,63.70
2019-01-09T08:18:39.175Z,62.60
2019-01-09T08:20:32.486Z,62.60
2019-01-09T08:21:32.478Z,62.50
2019-01-09T08:23:26.065Z,59.70
2019-01-09T08:24:25.853Z,61.30
2019-01-09T08:26:19.180Z,69.90
2019-01-09T08:27:19.215Z,62.00
2019-01-09T08:29:12.715Z,53.90
2019-01-09T08:30:12.541Z,54.90
2019-01-09T08:32:05.880Z,61.40
2019-01-09T08:33:05.862Z,53.20
2019-01-09T08:34:59.443Z,55.80
2019-01-09T08:35:59.172Z,61.00
2019-01-09T08:37:52.530Z,53.40
2019-01-09T08:38:52.501Z,57.40
2019-01-09T08:40:46.065Z,54.80
2019-01-09T08:41:45.907Z,56.80
2019-01-09T08:43:39.239Z,58.90
2019-01-09T08:44:39.235Z,59.50
2019-01-09T08:46:32.794Z,58.60
2019-01-09T08:47:32.543Z,56.10
2019-01-09T08:49:26.607Z,51.20
2019-01-09T08:50:26.591Z,54.20
2019-01-09T08:52:20.185Z,49.20
2019-01-09T08:53:19.926Z,51.10
2019-01-09T08:55:13.301Z,52.70
2019-01-09T08:56:13.269Z,53.40
2019-01-09T08:58:06.834Z,50.20
2019-01-09T08:59:06.564Z,47.90
2019-01-09T09:00:59.955Z,52.90
2019-01-09T09:02:00.274Z,57.30
2019-01-09T09:03:53.525Z,56.90
2019-01-09T09:04:53.285Z,56.30
2019-01-09T09:06:46.629Z,56.80
2019-01-09T09:07:46.644Z,57.30
2019-01-09T09:09:43.889Z,54.10
2019-01-09T09:10:39.955Z,52.70
2019-01-09T09:12:33.331Z,53.50
2019-01-09T09:13:33.301Z,50.70
2019-01-09T09:15:26.864Z,47.50
2019-01-09T09:16:26.688Z,49.80
2019-01-09T09:18:20.019Z,49.70
2019-01-09T09:19:19.985Z,44.50
2019-01-09T09:21:13.609Z,43.10
2019-01-09T09:22:13.359Z,47.60
2019-01-09T09:24:06.726Z,46.40
2019-01-09T09:25:06.650Z,49.60
2019-01-09T09:27:00.262Z,43.30
2019-01-09T09:27:59.990Z,40.70
2019-01-09T09:29:53.380Z,43.10
2019-01-09T09:30:53.359Z,41.10
2019-01-09T09:32:46.964Z,42.10
2019-01-09T09:33:46.692Z,39.90
2019-01-09T09:35:40.023Z,43.50
2019-01-09T09:36:40.089Z,42.30
2019-01-09T09:38:33.623Z,42.40
2019-01-09T09:39:33.418Z,48.80
2019-01-09T09:41:26.741Z,43.40
2019-01-09T09:42:26.704Z,41.70
2019-01-09T09:44:20.298Z,43.80
2019-01-09T09:45:20.076Z,39.70
2019-01-09T09:47:13.416Z,45.40
2019-01-09T09:48:13.429Z,44.60
2019-01-09T09:50:07.014Z,44.50
2019-01-09T09:51:06.755Z,46.70
2019-01-09T09:53:00.127Z,48.80
2019-01-09T09:54:00.123Z,48.20
2019-01-09T09:55:53.679Z,49.50
2019-01-09T09:56:53.400Z,45.50
2019-01-09T09:58:46.769Z,45.20
2019-01-09T09:59:46.775Z,48.80
2019-01-09T10:01:40.393Z,48.20
2019-01-09T10:02:40.149Z,44.70
2019-01-09T10:04:33.579Z,46.90
2019-01-09T10:05:33.453Z,49.30
2019-01-09T10:07:30.480Z,51.20
2019-01-09T10:08:29.485Z,46.70
2019-01-09T10:10:20.149Z,47.00
2019-01-09T10:11:20.129Z,46.70
2019-01-09T10:13:14.060Z,56.80
2019-01-09T10:14:13.494Z,61.80
2019-01-09T10:16:06.855Z,72.80
2019-01-09T10:17:06.878Z,76.80
2019-01-09T10:19:00.383Z,69.30
2019-01-09T10:20:00.180Z,64.70
2019-01-09T10:21:54.155Z,76.40
2019-01-09T10:22:53.773Z,79.40
2019-01-09T10:24:47.073Z,79.60
2019-01-09T10:25:46.845Z,81.80
2019-01-09T10:27:40.195Z,81.60
2019-01-09T10:28:40.202Z,89.70
2019-01-09T10:30:33.738Z,92.20
2019-01-09T10:31:33.526Z,89.00
2019-01-09T10:33:26.882Z,88.40
2019-01-09T10:34:26.859Z,86.00
2019-01-09T10:36:20.426Z,94.70
2019-01-09T10:37:20.248Z,103.70
2019-01-09T10:39:13.064Z,94.50
2019-01-09T10:40:13.046Z,97.10
2019-01-09T10:42:08.115Z,94.00
2019-01-09T10:43:06.451Z,90.90
2019-01-09T10:44:59.750Z,99.80
2019-01-09T10:45:59.728Z,90.60
2019-01-09T10:47:53.347Z,110.80
2019-01-09T10:48:53.121Z,99.40
2019-01-09T10:50:47.059Z,106.20
2019-01-09T10:51:47.037Z,103.60
2019-01-09T10:53:40.617Z,118.00
2019-01-09T10:54:40.426Z,117.10
2019-01-09T10:56:33.721Z,103.00
2019-01-09T10:57:33.733Z,105.90
2019-01-09T10:59:26.804Z,107.40
2019-01-09T11:00:26.641Z,118.60
2019-01-09T11:02:19.996Z,112.80
2019-01-09T11:03:19.936Z,108.00
2019-01-09T11:05:13.517Z,122.90
2019-01-09T11:06:14.494Z,119.00
2019-01-09T11:08:06.609Z,118.40
2019-01-09T11:09:06.619Z,112.10
2019-01-09T11:11:04.685Z,123.70
2019-01-09T11:11:59.957Z,120.90
2019-01-09T11:13:53.290Z,116.20
2019-01-09T11:14:53.329Z,122.20
2019-01-09T11:16:46.863Z,117.70
2019-01-09T11:17:46.647Z,125.60
2019-01-09T11:19:39.972Z,129.20
2019-01-09T11:20:39.999Z,129.50
2019-01-09T11:22:33.047Z,126.20
2019-01-09T11:23:32.851Z,131.30
2019-01-09T11:25:26.197Z,127.30
2019-01-09T11:26:26.170Z,131.40
2019-01-09T11:28:19.759Z,128.10
2019-01-09T11:29:19.519Z,140.10
2019-01-09T11:31:12.907Z,127.90
2019-01-09T11:32:12.901Z,133.80
2019-01-09T11:34:06.441Z,133.90
2019-01-09T11:35:06.228Z,142.10
2019-01-09T11:36:59.558Z,146.20
2019-01-09T11:37:59.578Z,139.40
2019-01-09T11:38:59.507Z,146.70
2019-01-09T11:39:59.520Z,144.80
2019-01-09T11:40:59.528Z,158.20
2019-01-09T11:41:59.523Z,144.50
2019-01-09T11:42:59.505Z,141.20
2019-01-09T11:43:59.519Z,147.70
2019-01-09T11:44:59.522Z,149.90
2019-01-09T11:45:59.490Z,144.10
2019-01-09T11:46:59.515Z,145.80
2019-01-09T11:47:59.501Z,155.00
2019-01-09T11:48:59.447Z,149.50
2019-01-09T11:49:59.426Z,148.30
2019-01-09T11:50:59.464Z,153.20
2019-01-09T11:51:59.418Z,145.60
2019-01-09T11:52:59.422Z,148.00
2019-01-09T11:53:59.432Z,143.70
2019-01-09T11:54:59.448Z,156.80
2019-01-09T11:55:59.400Z,144.60
2019-01-09T11:56:59.393Z,154.00
2019-01-09T11:57:59.469Z,158.60
2019-01-09T11:58:59.392Z,156.50
2019-01-09T11:59:59.366Z,141.50
2019-01-09T12:00:59.423Z,154.20
2019-01-09T12:01:59.379Z,150.30
2019-01-09T12:02:59.385Z,156.10
2019-01-09T12:03:59.391Z,159.20
2019-01-09T12:05:01.087Z,169.00
2019-01-09T12:05:59.317Z,172.50
2019-01-09T12:06:59.327Z,158.60
2019-01-09T12:07:59.314Z,153.90
2019-01-09T12:09:04.521Z,146.50
2019-01-09T12:09:59.296Z,163.60
2019-01-09T12:10:59.339Z,163.30
2019-01-09T12:11:59.324Z,169.90
2019-01-09T12:12:59.384Z,164.00
2019-01-09T12:13:59.314Z,157.10
2019-01-09T12:14:59.259Z,151.70
2019-01-09T12:16:07.771Z,162.20
2019-01-09T12:16:59.286Z,168.40
2019-01-09T12:17:59.288Z,179.00
2019-01-09T12:18:59.232Z,162.50
2019-01-09T12:19:59.258Z,174.70
2019-01-09T12:20:59.231Z,171.00
2019-01-09T12:21:59.204Z,164.70
2019-01-09T12:22:59.241Z,170.70
2019-01-09T12:23:59.219Z,175.90
2019-01-09T12:24:59.186Z,168.10
2019-01-09T12:25:59.173Z,168.40
2019-01-09T12:26:59.195Z,154.20
2019-01-09T12:27:59.199Z,167.50
2019-01-09T12:28:59.154Z,181.30
2019-01-09T12:29:59.148Z,151.10
2019-01-09T12:30:59.178Z,168.60
2019-01-09T12:31:59.163Z,170.00
2019-01-09T12:32:59.128Z,159.20
2019-01-09T12:33:59.157Z,169.50
2019-01-09T12:34:59.139Z,176.80
2019-01-09T12:35:59.123Z,158.70
2019-01-09T12:36:59.146Z,172.70
2019-01-09T12:37:59.066Z,179.90
2019-01-09T12:38:59.084Z,180.40
2019-01-09T12:39:59.116Z,173.80
2019-01-09T12:40:59.104Z,165.20
2019-01-09T12:41:59.086Z,169.60
2019-01-09T12:42:59.034Z,168.40
2019-01-09T12:43:59.028Z,175.70
2019-01-09T12:44:59.367Z,175.90
2019-01-09T12:45:59.019Z,182.90
2019-01-09T12:46:59.033Z,173.70
2019-01-09T12:47:59.032Z,172.60
2019-01-09T12:48:59.033Z,179.60
2019-01-09T12:49:59.006Z,171.30
2019-01-09T12:50:59.001Z,166.70
2019-01-09T12:51:59.027Z,184.20
2019-01-09T12:52:59.015Z,184.10
2019-01-09T12:53:58.966Z,181.70
2019-01-09T12:54:59.013Z,177.10
2019-01-09T12:55:58.964Z,179.10
2019-01-09T12:56:58.967Z,180.70
2019-01-09T12:57:58.944Z,178.70
2019-01-09T12:58:58.915Z,179.80
2019-01-09T12:59:58.921Z,185.00
2019-01-09T13:00:58.925Z,182.10
2019-01-09T13:01:58.915Z,181.10
2019-01-09T13:02:58.915Z,189.40
2019-01-09T13:03:58.924Z,178.50
2019-01-09T13:04:58.930Z,179.40
2019-01-09T13:05:58.904Z,189.20
2019-01-09T13:06:58.896Z,185.80
2019-01-09T13:07:58.858Z,174.90
2019-01-09T13:08:58.857Z,181.10
2019-01-09T13:09:58.888Z,188.70
2019-01-09T13:10:58.866Z,177.90
2019-01-09T13:11:58.850Z,188.50
2019-01-09T13:12:58.829Z,188.60
2019-01-09T13:13:58.824Z,190.40
2019-01-09T13:14:58.793Z,177.20
2019-01-09T13:15:58.817Z,171.70
2019-01-09T13:16:58.769Z,178.00
2019-01-09T13:17:58.762Z,171.70
2019-01-09T13:18:58.767Z,183.70
2019-01-09T13:19:58.772Z,175.90
2019-01-09T13:20:58.805Z,185.50
2019-01-09T13:21:58.762Z,180.50
2019-01-09T13:22:58.792Z,184.60
2019-01-09T13:23:58.732Z,187.00
2019-01-09T13:24:59.117Z,193.40
2019-01-09T13:25:58.696Z,181.30
2019-01-09T13:26:58.707Z,188.90
2019-01-09T13:27:58.695Z,189.20
2019-01-09T13:28:58.709Z,183.00
2019-01-09T13:29:58.701Z,190.60
2019-01-09T13:30:58.682Z,192.10
2019-01-09T13:31:58.704Z,191.60
2019-01-09T13:32:58.649Z,194.40
2019-01-09T13:33:58.651Z,190.20
2019-01-09T13:34:58.659Z,197.30
2019-01-09T13:35:58.631Z,188.20
2019-01-09T13:36:58.678Z,177.80
2019-01-09T13:37:58.663Z,182.40
2019-01-09T13:38:58.620Z,190.20
2019-01-09T13:39:58.671Z,189.10
2019-01-09T13:40:58.623Z,194.30
2019-01-09T13:41:58.613Z,196.20
2019-01-09T13:42:58.637Z,191.60
2019-01-09T13:43:58.563Z,191.20
2019-01-09T13:44:58.565Z,190.90
2019-01-09T13:45:59.619Z,185.90
2019-01-09T13:46:58.577Z,195.50
2019-01-09T13:47:58.539Z,199.70
2019-01-09T13:48:58.567Z,200.40
2019-01-09T13:49:58.548Z,183.50
2019-01-09T13:50:58.578Z,192.20
2019-01-09T13:51:58.525Z,194.20
2019-01-09T13:52:58.531Z,192.70
2019-01-09T13:53:58.518Z,190.40
2019-01-09T13:54:58.513Z,201.90
2019-01-09T13:55:58.527Z,197.80
2019-01-09T13:56:58.492Z,193.80
2019-01-09T13:57:58.522Z,199.80
2019-01-09T13:58:58.515Z,199.20
2019-01-09T13:59:58.463Z,207.60
2019-01-09T14:00:58.438Z,202.70
2019-01-09T14:01:58.483Z,199.60
2019-01-09T14:02:58.491Z,191.50
2019-01-09T14:03:58.470Z,192.40
2019-01-09T14:04:58.409Z,206.10
2019-01-09T14:05:58.414Z,191.10
2019-01-09T14:06:58.428Z,192.00
2019-01-09T14:07:58.415Z,197.40
2019-01-09T14:08:58.410Z,193.80
2019-01-09T14:09:58.385Z,191.60
2019-01-09T14:10:58.427Z,199.40
2019-01-09T14:11:58.378Z,204.40
2019-01-09T14:12:58.384Z,194.40
2019-01-09T14:13:58.403Z,190.50
2019-01-09T14:14:58.326Z,199.40
2019-01-09T14:15:58.347Z,200.50
2019-01-09T14:16:58.318Z,197.30
2019-01-09T14:17:58.350Z,201.60
2019-01-09T14:18:58.348Z,192.50
2019-01-09T14:19:58.367Z,198.10
2019-01-09T14:20:58.337Z,200.90
2019-01-09T14:21:58.310Z,195.10
2019-01-09T14:22:58.323Z,203.40
2019-01-09T14:23:58.270Z,194.70
2019-01-09T14:24:58.276Z,185.70
2019-01-09T14:25:58.265Z,196.90
2019-01-09T14:26:58.303Z,203.90
2019-01-09T14:27:58.257Z,185.00
2019-01-09T14:28:58.272Z,201.10
2019-01-09T14:29:58.278Z,201.20
2019-01-09T14:30:58.265Z,194.70
2019-01-09T14:31:58.233Z,196.20
2019-01-09T14:32:58.219Z,199.40
2019-01-09T14:33:58.188Z,209.70
2019-01-09T14:34:59.870Z,211.80
2019-01-09T14:35:58.738Z,201.50
2019-01-09T14:36:58.170Z,197.60
2019-01-09T14:37:58.161Z,202.30
2019-01-09T14:38:58.175Z,205.50
2019-01-09T14:39:58.201Z,210.10
2019-01-09T14:40:58.160Z,213.20
2019-01-09T14:41:58.166Z,208.00
2019-01-09T14:42:58.147Z,208.50
2019-01-09T14:43:58.137Z,209.30
2019-01-09T14:44:58.141Z,202.30
2019-01-09T14:45:58.114Z,202.50
2019-01-09T14:46:58.108Z,207.90
2019-01-09T14:47:58.101Z,206.10
2019-01-09T14:48:58.067Z,208.80
2019-01-09T14:49:58.115Z,206.40
2019-01-09T14:50:58.115Z,205.30
2019-01-09T14:51:58.061Z,199.90
2019-01-09T14:52:58.098Z,206.00
2019-01-09T14:53:58.046Z,208.00
2019-01-09T14:54:58.045Z,202.80
2019-01-09T14:55:58.009Z,215.90
2019-01-09T14:56:58.032Z,205.20
2019-01-09T14:57:58.006Z,210.40
2019-01-09T14:58:58.018Z,212.20
2019-01-09T14:59:58.006Z,217.70
2019-01-09T15:00:58.020Z,210.90